Time;durP1;ratioP1;P1;durP2;ratioP2;P2;SDS_P1;SDS_P2;PMS_P1;PMS_P2;Temp;Humidity;BMP_temperature;BMP_pressure;BME280_temperature;BME280_humidity;BME280_pressure;Samples;Min_cycle;Max_cycle;Signal;HPM_P1;HPM_P2
2021/10/24 00:01:28;;;;;;;13.85;8.50;;;7.50;89.40;;;;;;5088140;28;20032;-79
2021/10/24 00:03:53;;;;;;;11.65;7.88;;;7.50;89.40;;;;;;5088140;28;20032;-79
2021/10/24 00:06:19;;;;;;;13.38;8.73;;;7.50;89.40;;;;;;5088204;28;20403;-79
2021/10/24 00:08:45;;;;;;;13.20;8.57;;;7.50;89.40;;;;;;5088214;28;20024;-78
2021/10/24 00:11:10;;;;;;;10.80;7.72;;;7.50;89.30;;;;;;5105040;28;20028;-79
2021/10/24 00:13:36;;;;;;;11.18;7.63;;;7.50;89.40;;;;;;5090151;28;20502;-79
2021/10/24 00:16:02;;;;;;;13.05;7.95;;;7.50;89.30;;;;;;5092233;28;20108;-79
2021/10/24 00:18:27;;;;;;;12.18;7.60;;;7.40;89.30;;;;;;5092204;28;20023;-79
2021/10/24 00:20:53;;;;;;;12.63;7.85;;;7.40;89.30;;;;;;5076380;28;20074;-79
2021/10/24 00:23:19;;;;;;;10.38;7.47;;;7.40;89.30;;;;;;5091964;28;20032;-79
2021/10/24 00:25:46;;;;;;;11.75;7.97;;;7.40;89.40;;;;;;5076381;28;20501;-79
2021/10/24 00:28:11;;;;;;;11.63;7.47;;;7.40;89.30;;;;;;5091818;28;20024;-79
2021/10/24 00:30:37;;;;;;;13.77;8.00;;;7.40;89.30;;;;;;5091820;28;20032;-79
2021/10/24 00:33:06;;;;;;;12.40;8.00;;;7.40;89.30;;;;;;5091746;28;20435;-79
2021/10/24 00:35:33;;;;;;;15.23;7.75;;;7.30;89.30;;;;;;5076067;28;20029;-79
2021/10/24 00:37:59;;;;;;;13.02;8.07;;;7.30;89.30;;;;;;5091806;28;20025;-79
2021/10/24 00:40:25;;;;;;;11.52;8.00;;;7.30;89.30;;;;;;5091420;28;20052;-79
2021/10/24 00:42:52;;;;;;;11.48;7.90;;;7.30;89.30;;;;;;5091583;28;20059;-79
2021/10/24 00:45:19;;;;;;;10.93;7.50;;;7.30;89.30;;;;;;5075849;28;20029;-79
2021/10/24 00:47:45;;;;;;;12.77;7.53;;;7.30;89.30;;;;;;5091449;28;20023;-80
2021/10/24 00:50:11;;;;;;;10.85;7.13;;;7.30;89.30;;;;;;5091394;28;20024;-79
2021/10/24 00:52:38;;;;;;;12.95;7.60;;;7.20;89.30;;;;;;5075715;28;20035;-79
2021/10/24 00:55:04;;;;;;;11.15;7.25;;;7.30;89.30;;;;;;5091430;28;20582;-79
2021/10/24 00:57:30;;;;;;;13.65;8.80;;;7.20;89.30;;;;;;5091282;28;20074;-79
2021/10/24 00:59:55;;;;;;;14.85;8.25;;;7.20;89.20;;;;;;5091205;28;20472;-79
2021/10/24 01:02:21;;;;;;;14.55;8.73;;;7.20;89.40;;;;;;5091167;28;20024;-79
2021/10/24 01:04:47;;;;;;;12.27;8.52;;;7.20;89.40;;;;;;5091278;28;20031;-78
2021/10/24 01:07:16;;;;;;;12.35;8.43;;;7.20;89.40;;;;;;5075534;28;20027;-79
2021/10/24 01:09:42;;;;;;;12.02;7.55;;;7.10;89.40;;;;;;5091148;28;20025;-79
2021/10/24 01:12:08;;;;;;;13.82;7.72;;;7.20;89.40;;;;;;5090944;28;20032;-79
2021/10/24 01:14:34;;;;;;;11.43;7.63;;;7.20;89.40;;;;;;5090979;28;20020;-79
2021/10/24 01:16:59;;;;;;;14.18;8.10;;;7.10;89.40;;;;;;5080688;28;20086;-80
2021/10/24 01:19:25;;;;;;;12.02;7.57;;;7.10;89.30;;;;;;5090893;28;20402;-78
2021/10/24 01:21:50;;;;;;;12.25;8.18;;;7.10;89.30;;;;;;5090896;28;20116;-80
2021/10/24 01:24:16;;;;;;;11.25;8.23;;;7.10;89.30;;;;;;5089874;28;20071;-79
2021/10/24 01:26:42;;;;;;;13.07;8.35;;;7.10;89.40;;;;;;5093576;28;20457;-79
2021/10/24 01:29:10;;;;;;;13.20;7.05;;;7.10;89.40;;;;;;5090676;28;20111;-79
2021/10/24 01:31:37;;;;;;;12.32;7.68;;;7.10;89.40;;;;;;5090635;28;20128;-79
2021/10/24 01:34:06;;;;;;;10.73;7.40;;;7.00;89.40;;;;;;5090617;28;20024;-79
2021/10/24 01:36:32;;;;;;;12.98;7.57;;;7.00;89.40;;;;;;5074958;28;20361;-79
2021/10/24 01:38:58;;;;;;;13.70;8.15;;;7.00;89.40;;;;;;5074933;28;20077;-79
2021/10/24 01:41:24;;;;;;;12.88;8.00;;;7.00;89.40;;;;;;5074825;28;20135;-79
2021/10/24 01:43:52;;;;;;;12.98;8.55;;;6.90;89.40;;;;;;5073866;28;20441;-79
2021/10/24 01:46:18;;;;;;;13.93;8.05;;;6.90;89.40;;;;;;5074724;28;20019;-71
2021/10/24 01:48:44;;;;;;;13.13;8.07;;;6.90;89.40;;;;;;5090303;28;20021;-71
2021/10/24 01:51:11;;;;;;;10.57;7.55;;;6.90;89.40;;;;;;5090161;28;20090;-71
2021/10/24 01:53:39;;;;;;;14.00;8.25;;;6.90;89.50;;;;;;5090114;28;20013;-71
2021/10/24 01:56:06;;;;;;;12.27;7.30;;;6.90;89.50;;;;;;5074555;28;20025;-71
2021/10/24 01:58:32;;;;;;;13.07;7.95;;;6.90;89.50;;;;;;5090090;28;20107;-72
2021/10/24 02:00:58;;;;;;;13.50;7.30;;;6.80;89.50;;;;;;5090015;28;20115;-72
2021/10/24 02:03:24;;;;;;;11.13;7.82;;;6.80;89.50;;;;;;5089940;28;20113;-71
2021/10/24 02:05:50;;;;;;;13.68;8.73;;;6.90;89.60;;;;;;5074322;28;20031;-72
2021/10/24 02:08:16;;;;;;;12.65;8.15;;;6.80;89.50;;;;;;5074302;28;20035;-72
2021/10/24 02:10:43;;;;;;;12.10;7.85;;;6.90;89.60;;;;;;5074286;28;20025;-71
2021/10/24 02:13:09;;;;;;;11.63;7.55;;;6.80;89.50;;;;;;5089702;28;20392;-72
2021/10/24 02:15:36;;;;;;;11.25;7.82;;;6.80;89.50;;;;;;5089747;28;20024;-72
2021/10/24 02:18:05;;;;;;;14.35;8.43;;;6.80;89.50;;;;;;5074119;28;20028;-71
2021/10/24 02:20:33;;;;;;;10.68;7.95;;;6.80;89.50;;;;;;5089663;28;20024;-71
2021/10/24 02:23:00;;;;;;;13.15;8.02;;;6.80;89.50;;;;;;5073956;28;20476;-72
2021/10/24 02:28:47;;;;;;;13.85;8.25;;;6.70;89.50;;;;;;5073903;28;20443;-70
2021/10/24 02:31:13;;;;;;;14.02;7.70;;;6.70;89.50;;;;;;5089335;28;20020;-70
2021/10/24 02:33:39;;;;;;;10.80;7.18;;;6.70;89.50;;;;;;5089303;28;20021;-71
2021/10/24 02:36:04;;;;;;;13.18;7.72;;;6.70;89.60;;;;;;5089004;28;20016;-71
2021/10/24 02:38:30;;;;;;;13.32;7.43;;;6.70;89.60;;;;;;5089337;28;20394;-71
2021/10/24 02:40:55;;;;;;;12.70;7.68;;;6.70;89.60;;;;;;5073461;28;20102;-71
2021/10/24 02:43:21;;;;;;;12.15;7.90;;;6.70;89.60;;;;;;5073632;28;20032;-72
2021/10/24 02:45:46;;;;;;;10.15;7.30;;;6.70;89.60;;;;;;5088977;28;20036;-71
2021/10/24 02:48:12;;;;;;;13.90;7.65;;;6.70;89.60;;;;;;5073452;28;20457;-71
2021/10/24 02:50:39;;;;;;;13.65;7.30;;;6.70;89.60;;;;;;5088991;28;20020;-71
2021/10/24 02:53:05;;;;;;;12.02;7.40;;;6.70;89.60;;;;;;5088722;28;20021;-71
2021/10/24 02:55:30;;;;;;;10.65;7.53;;;6.70;89.60;;;;;;5088890;28;20466;-71
2021/10/24 02:57:57;;;;;;;13.27;7.80;;;6.70;89.60;;;;;;5073306;28;20025;-70
2021/10/24 03:00:22;;;;;;;12.10;7.32;;;6.70;89.60;;;;;;5073219;28;20484;-71
2021/10/24 03:02:48;;;;;;;12.18;7.43;;;6.70;89.60;;;;;;5088859;28;20078;-70
2021/10/24 03:05:14;;;;;;;10.77;6.88;;;6.70;89.60;;;;;;5073263;28;20484;-70
2021/10/24 03:07:39;;;;;;;9.73;7.38;;;6.70;89.60;;;;;;5088714;28;20043;-70
2021/10/24 03:10:06;;;;;;;10.63;7.45;;;6.70;89.60;;;;;;5088643;28;20025;-70
2021/10/24 03:12:31;;;;;;;10.98;7.22;;;6.70;89.60;;;;;;5088651;28;20032;-70
2021/10/24 03:14:57;;;;;;;11.50;6.95;;;6.70;89.60;;;;;;5088568;28;20020;-69
2021/10/24 03:17:22;;;;;;;10.18;6.93;;;6.70;89.70;;;;;;5088659;28;20027;-70
2021/10/24 03:19:48;;;;;;;11.40;7.28;;;6.70;89.70;;;;;;5072893;28;20016;-70
2021/10/24 03:22:14;;;;;;;10.73;7.05;;;6.70;89.70;;;;;;5088565;28;20079;-70
2021/10/24 03:24:39;;;;;;;12.75;7.05;;;6.70;89.80;;;;;;5088417;28;20074;-70
2021/10/24 03:27:05;;;;;;;9.25;7.18;;;6.70;89.80;;;;;;5088480;28;20070;-71
2021/10/24 03:29:30;;;;;;;12.65;6.88;;;6.70;89.80;;;;;;5088398;28;20032;-71
2021/10/24 03:31:56;;;;;;;10.23;6.65;;;6.70;89.80;;;;;;5072742;28;20063;-71
2021/10/24 03:34:22;;;;;;;11.95;6.50;;;6.70;89.80;;;;;;5088406;28;20048;-70
2021/10/24 03:36:47;;;;;;;10.32;6.65;;;6.70;89.80;;;;;;5088503;28;20116;-71
2021/10/24 03:39:13;;;;;;;9.68;6.78;;;6.70;89.80;;;;;;5072622;28;20016;-71
2021/10/24 03:41:39;;;;;;;10.10;6.32;;;6.80;89.80;;;;;;5105305;28;20037;-71
2021/10/24 03:44:04;;;;;;;10.68;6.57;;;6.80;89.80;;;;;;5105206;28;20043;-71
2021/10/24 03:46:35;;;;;;;10.48;6.70;;;6.80;89.80;;;;;;5072652;28;20497;-72
2021/10/24 03:49:01;;;;;;;11.90;7.20;;;6.80;89.80;;;;;;5104716;28;20518;-71
2021/10/24 03:51:27;;;;;;;12.15;7.10;;;6.80;89.80;;;;;;5072715;28;20043;-72
2021/10/24 03:53:52;;;;;;;11.63;7.50;;;6.70;89.70;;;;;;5105081;28;20028;-73
2021/10/24 03:56:18;;;;;;;11.48;7.32;;;6.70;89.80;;;;;;5088200;28;20028;-70
2021/10/24 03:58:44;;;;;;;11.60;6.63;;;6.70;89.80;;;;;;5105113;28;20422;-71
2021/10/24 04:01:10;;;;;;;11.82;6.53;;;6.70;89.80;;;;;;5088129;28;20027;-71
2021/10/24 04:03:36;;;;;;;10.27;6.63;;;6.70;89.90;;;;;;5072563;28;20051;-72
2021/10/24 04:06:03;;;;;;;10.88;6.55;;;6.70;89.90;;;;;;5072459;28;20551;-70
2021/10/24 04:08:29;;;;;;;11.07;6.75;;;6.70;89.90;;;;;;5088046;28;20020;-71
2021/10/24 04:10:55;;;;;;;9.48;6.78;;;6.70;89.80;;;;;;5072349;28;20033;-70
2021/10/24 04:13:20;;;;;;;10.73;6.70;;;6.70;89.80;;;;;;5072338;28;20035;-70
2021/10/24 04:15:47;;;;;;;12.48;7.00;;;6.70;89.80;;;;;;5072417;28;20109;-71
2021/10/24 04:18:12;;;;;;;10.60;6.82;;;6.70;89.80;;;;;;5088026;28;20112;-70
2021/10/24 04:20:38;;;;;;;8.77;6.45;;;6.70;89.80;;;;;;5072444;28;20108;-70
2021/10/24 04:26:25;;;;;;;9.98;6.20;;;6.70;89.80;;;;;;5072543;28;20027;-71
2021/10/24 04:28:51;;;;;;;12.23;7.30;;;6.70;89.80;;;;;;5087728;28;20029;-71
2021/10/24 04:31:16;;;;;;;11.80;7.60;;;6.60;89.80;;;;;;5072348;28;20028;-70
2021/10/24 04:33:42;;;;;;;12.13;7.18;;;6.60;89.90;;;;;;5087817;28;20473;-71
2021/10/24 04:36:07;;;;;;;8.05;6.53;;;6.60;89.90;;;;;;5087857;28;20013;-71
2021/10/24 04:38:33;;;;;;;9.95;7.03;;;6.60;90.00;;;;;;5087734;28;20021;-70
2021/10/24 04:40:59;;;;;;;14.00;7.30;;;6.50;89.90;;;;;;5072066;28;20048;-70
2021/10/24 04:43:25;;;;;;;13.18;7.03;;;6.50;90.00;;;;;;5087677;28;20078;-71
2021/10/24 04:45:50;;;;;;;10.75;6.68;;;6.50;90.00;;;;;;5087683;28;20017;-70
2021/10/24 04:48:16;;;;;;;11.52;7.18;;;6.40;90.00;;;;;;5072176;28;20029;-69
2021/10/24 04:50:41;;;;;;;12.30;6.80;;;6.40;90.00;;;;;;5071996;28;20020;-69
2021/10/24 04:53:08;;;;;;;9.95;6.55;;;6.40;90.00;;;;;;5087494;28;20051;-70
2021/10/24 04:55:35;;;;;;;11.73;6.68;;;6.40;90.00;;;;;;5087580;28;20024;-72
2021/10/24 04:58:02;;;;;;;10.38;6.68;;;6.30;90.00;;;;;;5071967;28;20025;-70
2021/10/24 05:00:28;;;;;;;10.18;6.93;;;6.40;90.00;;;;;;5089106;28;20025;-70
2021/10/24 05:02:53;;;;;;;12.13;7.25;;;6.30;90.00;;;;;;5091184;28;20074;-70
2021/10/24 05:05:19;;;;;;;12.18;7.28;;;6.30;90.00;;;;;;5091009;28;20028;-70
2021/10/24 05:07:45;;;;;;;12.20;7.38;;;6.30;90.00;;;;;;5075429;28;20032;-70
2021/10/24 05:10:10;;;;;;;11.32;6.85;;;6.30;90.00;;;;;;5091080;28;20476;-71
2021/10/24 05:12:36;;;;;;;10.30;6.60;;;6.20;90.00;;;;;;5075235;28;20028;-71
2021/10/24 05:15:03;;;;;;;9.73;6.72;;;6.20;90.00;;;;;;5075363;28;20049;-71
2021/10/24 05:17:29;;;;;;;13.30;7.63;;;6.20;90.00;;;;;;5075239;28;20021;-71
2021/10/24 05:19:54;;;;;;;13.77;6.38;;;6.20;90.00;;;;;;5090932;28;20537;-70
2021/10/24 05:22:20;;;;;;;11.32;6.97;;;6.20;90.00;;;;;;5075313;28;20036;-70
2021/10/24 05:24:47;;;;;;;11.07;6.90;;;6.10;90.00;;;;;;5090706;28;20392;-71
2021/10/24 05:30:35;;;;;;;12.32;6.72;;;6.10;90.00;;;;;;5075380;28;20443;-70
2021/10/24 05:33:00;;;;;;;10.57;6.80;;;6.10;90.00;;;;;;5090417;28;20041;-71
2021/10/24 05:35:26;;;;;;;8.65;6.32;;;6.10;90.00;;;;;;5090613;28;20059;-78
2021/10/24 05:37:51;;;;;;;11.98;7.10;;;6.00;90.00;;;;;;5074954;28;20419;-79
2021/10/24 05:40:17;;;;;;;11.93;6.90;;;6.10;90.10;;;;;;5107352;28;20135;-77
2021/10/24 05:42:43;;;;;;;10.18;7.00;;;6.00;90.00;;;;;;5090426;28;20030;-78
2021/10/24 05:45:09;;;;;;;10.68;6.93;;;6.10;90.10;;;;;;5090285;28;20031;-79
2021/10/24 05:47:34;;;;;;;13.88;7.45;;;6.00;90.00;;;;;;5090177;28;20036;-79
2021/10/24 05:50:00;;;;;;;11.18;6.93;;;6.00;90.00;;;;;;5074738;28;20025;-79
2021/10/24 05:52:25;;;;;;;12.70;7.05;;;6.00;90.00;;;;;;5090058;28;20063;-78
2021/10/24 05:54:51;;;;;;;11.60;7.70;;;6.00;90.00;;;;;;5090200;28;20021;-79
2021/10/24 05:57:17;;;;;;;10.75;7.00;;;6.00;90.00;;;;;;5090115;28;20029;-79
2021/10/24 05:59:42;;;;;;;12.52;6.88;;;6.00;90.10;;;;;;5090111;28;20032;-78
2021/10/24 06:02:10;;;;;;;13.73;7.15;;;6.00;90.10;;;;;;5090013;28;20062;-80
2021/10/24 06:04:36;;;;;;;12.88;7.15;;;6.00;90.10;;;;;;5090057;28;20024;-79
2021/10/24 06:07:02;;;;;;;9.75;6.72;;;6.00;90.10;;;;;;5090043;28;20029;-79
2021/10/24 06:10:15;;;;;;;12.65;7.18;;;6.00;90.10;;;;;;5074436;28;20066;-79
2021/10/24 06:15:02;;;;;;;11.93;6.80;;;6.00;90.10;;;;;;5075003;28;20086;-78
2021/10/24 06:17:29;;;;;;;10.38;6.65;;;6.00;90.10;;;;;;5074479;28;20025;-78
2021/10/24 06:19:55;;;;;;;12.27;7.25;;;6.00;90.10;;;;;;5074557;28;20032;-78
2021/10/24 06:22:20;;;;;;;10.32;6.80;;;6.00;90.10;;;;;;5074706;28;20077;-79
2021/10/24 06:24:46;;;;;;;12.65;7.22;;;6.00;90.10;;;;;;5089905;28;20025;-78
2021/10/24 06:30:34;;;;;;;11.45;6.53;;;6.00;90.10;;;;;;5074621;28;20027;-77
2021/10/24 06:33:00;;;;;;;11.05;6.63;;;6.00;90.00;;;;;;5089831;28;20626;-78
2021/10/24 06:35:25;;;;;;;11.95;6.97;;;6.00;90.00;;;;;;5090023;28;20017;-78
2021/10/24 06:37:51;;;;;;;9.93;6.40;;;6.00;90.00;;;;;;5089872;28;20047;-78
2021/10/24 06:40:17;;;;;;;10.60;7.32;;;6.00;90.00;;;;;;5073807;28;20087;-78
2021/10/24 06:42:44;;;;;;;9.90;6.85;;;6.00;90.10;;;;;;5089389;28;20036;-78
2021/10/24 06:45:10;;;;;;;11.52;6.93;;;6.00;90.10;;;;;;5089265;28;20498;-79
2021/10/24 06:47:37;;;;;;;9.95;6.85;;;6.00;90.10;;;;;;5089361;28;20024;-79
2021/10/24 06:50:04;;;;;;;10.43;6.90;;;6.10;90.10;;;;;;5089184;28;20028;-79
2021/10/24 06:52:30;;;;;;;10.10;7.03;;;6.10;90.10;;;;;;5088993;28;20131;-78
2021/10/24 06:54:56;;;;;;;12.05;7.10;;;6.10;90.10;;;;;;5089234;28;20067;-79
2021/10/24 06:57:22;;;;;;;10.93;7.30;;;6.10;90.00;;;;;;5089089;28;20025;-79
2021/10/24 06:59:51;;;;;;;12.77;7.25;;;6.20;90.10;;;;;;5073420;28;20070;-79
2021/10/24 07:02:19;;;;;;;12.55;7.25;;;6.20;90.10;;;;;;5089188;28;20032;-80
2021/10/24 07:04:45;;;;;;;10.30;7.00;;;6.20;90.00;;;;;;5089126;28;20028;-79
2021/10/24 07:07:10;;;;;;;16.80;7.75;;;6.20;90.00;;;;;;5088922;28;20370;-78
2021/10/24 07:09:36;;;;;;;10.43;6.82;;;6.20;90.00;;;;;;5073316;28;20024;-77
2021/10/24 07:12:02;;;;;;;10.10;7.38;;;6.20;90.20;;;;;;5088828;28;20024;-77
2021/10/24 07:14:27;;;;;;;9.60;6.88;;;6.30;90.00;;;;;;5088740;28;20055;-77
2021/10/24 07:16:53;;;;;;;12.00;7.90;;;6.30;90.00;;;;;;5073289;28;20062;-77
2021/10/24 07:19:19;;;;;;;11.93;7.22;;;6.30;90.00;;;;;;5073332;28;20031;-79
2021/10/24 07:21:44;;;;;;;11.63;7.07;;;6.30;89.90;;;;;;5088448;28;20055;-79
2021/10/24 07:24:10;;;;;;;11.48;7.35;;;6.40;89.90;;;;;;5087979;28;20028;-78
2021/10/24 07:29:58;;;;;;;9.90;7.28;;;6.40;89.90;;;;;;5073012;28;20070;-78
2021/10/24 07:32:23;;;;;;;10.63;7.20;;;6.50;89.90;;;;;;5072933;28;20029;-79
2021/10/24 07:34:49;;;;;;;9.95;6.70;;;6.50;89.80;;;;;;5088496;28;20074;-78
2021/10/24 07:37:15;;;;;;;10.32;6.88;;;6.50;89.80;;;;;;5088494;28;20111;-77
2021/10/24 07:39:41;;;;;;;8.60;6.85;;;6.50;89.70;;;;;;5088139;28;20037;-80
2021/10/24 07:42:07;;;;;;;8.77;7.28;;;6.60;89.70;;;;;;5072731;28;20029;-79
2021/10/24 07:44:33;;;;;;;9.52;7.07;;;6.60;89.70;;;;;;5088338;28;20027;-78
2021/10/24 07:50:21;;;;;;;9.25;6.45;;;6.70;89.60;;;;;;5073059;28;20170;-80
2021/10/24 07:52:46;;;;;;;9.90;6.72;;;6.70;89.60;;;;;;5090970;28;20119;-80
2021/10/24 07:55:12;;;;;;;8.27;6.60;;;6.70;89.50;;;;;;5088326;28;20039;-78
2021/10/24 07:57:38;;;;;;;11.52;7.00;;;6.80;89.50;;;;;;5088352;28;20017;-77
2021/10/24 08:00:05;;;;;;;9.48;6.65;;;6.80;89.50;;;;;;5072719;28;20021;-78
2021/10/24 08:02:32;;;;;;;9.70;6.50;;;6.80;89.50;;;;;;5088438;28;20031;-80
2021/10/24 08:04:58;;;;;;;11.82;7.15;;;6.90;89.50;;;;;;5077838;28;20094;-79
2021/10/24 08:07:23;;;;;;;11.07;6.90;;;7.00;89.50;;;;;;5072608;28;20188;-80
2021/10/24 08:09:49;;;;;;;8.70;6.63;;;7.00;89.40;;;;;;5072631;28;20039;-78
2021/10/24 08:12:16;;;;;;;9.57;6.60;;;7.10;89.40;;;;;;5072527;28;20048;-80
2021/10/24 08:14:42;;;;;;;9.63;6.93;;;7.10;89.30;;;;;;5088110;28;20052;-79
2021/10/24 08:17:45;;;;;;;9.40;6.80;;;7.20;89.20;;;;;;5088225;28;20024;-75
2021/10/24 08:20:11;;;;;;;10.30;6.82;;;7.20;89.10;;;;;;5072500;28;20043;-79
2021/10/24 08:22:38;;;;;;;12.27;7.05;;;7.20;89.00;;;;;;5072796;28;20051;-78
2021/10/24 08:25:04;;;;;;;8.38;6.40;;;7.30;89.60;;;;;;5087873;28;20036;-79
2021/10/24 08:27:31;;;;;;;10.68;6.78;;;7.40;89.00;;;;;;5087819;28;20017;-79
2021/10/24 08:29:58;;;;;;;9.50;6.38;;;7.40;88.90;;;;;;5087923;28;20033;-78
2021/10/24 08:32:23;;;;;;;8.82;5.57;;;7.50;88.80;;;;;;5087757;28;20371;-78
2021/10/24 08:34:49;;;;;;;9.27;6.30;;;7.50;89.00;;;;;;5090201;28;20012;-79
2021/10/24 08:37:15;;;;;;;11.30;6.20;;;7.60;89.10;;;;;;5091801;28;20143;-78
2021/10/24 08:39:41;;;;;;;8.60;6.18;;;7.60;89.30;;;;;;5075850;28;20044;-79
2021/10/24 08:42:07;;;;;;;10.27;5.80;;;7.70;89.20;;;;;;5076079;28;20028;-79
2021/10/24 08:44:33;;;;;;;8.27;5.47;;;7.70;89.10;;;;;;5075953;28;20029;-79
2021/10/24 08:46:59;;;;;;;6.20;4.30;;;7.80;89.50;;;;;;5091703;28;20028;-78
2021/10/24 08:49:25;;;;;;;8.35;5.25;;;7.90;89.50;;;;;;5091581;28;20393;-78
2021/10/24 08:51:51;;;;;;;7.65;5.95;;;7.90;89.50;;;;;;5091353;28;20142;-77
2021/10/24 08:54:28;;;;;;;10.85;6.15;;;7.90;89.30;;;;;;5075837;28;20044;-78
2021/10/24 08:56:56;;;;;;;9.75;7.00;;;8.00;89.20;;;;;;5076030;28;20478;-78
2021/10/24 08:59:22;;;;;;;7.32;5.45;;;8.10;89.10;;;;;;5091359;28;20068;-79
2021/10/24 09:01:52;;;;;;;10.30;6.05;;;8.10;89.00;;;;;;5091674;28;20021;-78
2021/10/24 09:04:18;;;;;;;9.75;6.47;;;8.20;88.90;;;;;;5092284;28;20035;-78
2021/10/24 09:06:56;;;;;;;8.48;6.38;;;8.20;88.80;;;;;;5091474;28;20444;-78
2021/10/24 09:09:36;;;;;;;8.82;5.82;;;8.30;88.70;;;;;;5091292;28;20120;-79
2021/10/24 09:12:09;;;;;;;10.60;6.13;;;8.30;88.50;;;;;;5091220;28;20025;-79
2021/10/24 09:15:06;;;;;;;9.13;6.13;;;8.40;88.40;;;;;;5091773;28;20032;-79
2021/10/24 09:17:32;;;;;;;8.02;5.65;;;8.40;88.30;;;;;;5091283;28;20070;-78
2021/10/24 09:20:04;;;;;;;8.20;6.00;;;8.50;88.20;;;;;;5091008;28;20024;-79
2021/10/24 09:22:36;;;;;;;8.65;5.88;;;8.60;88.70;;;;;;5075233;28;20037;-79
2021/10/24 09:25:10;;;;;;;7.45;5.05;;;8.60;87.90;;;;;;5090905;28;20017;-79
2021/10/24 09:27:43;;;;;;;7.68;5.50;;;8.70;87.90;;;;;;5075411;28;20032;-79
2021/10/24 09:30:30;;;;;;;6.57;4.93;;;8.70;87.90;;;;;;5108263;28;20020;-79
2021/10/24 09:32:58;;;;;;;7.40;4.75;;;8.80;88.10;;;;;;5075687;28;20025;-79
2021/10/24 09:35:27;;;;;;;6.30;4.10;;;8.80;88.40;;;;;;5090997;28;20020;-80
2021/10/24 09:37:55;;;;;;;8.93;4.90;;;8.90;88.40;;;;;;5075571;28;20028;-78
2021/10/24 09:40:28;;;;;;;8.70;5.10;;;8.90;88.40;;;;;;5090816;28;20044;-78
2021/10/24 09:43:09;;;;;;;6.97;4.53;;;9.00;88.40;;;;;;5075259;28;20389;-79
2021/10/24 09:45:34;;;;;;;9.75;5.50;;;9.00;88.20;;;;;;5089737;28;20439;-77
2021/10/24 09:48:09;;;;;;;7.40;4.97;;;9.10;88.00;;;;;;5075053;28;20029;-77
2021/10/24 09:50:42;;;;;;;6.13;4.78;;;9.20;88.00;;;;;;5090678;28;20500;-79
2021/10/24 09:53:19;;;;;;;7.43;5.25;;;9.20;87.90;;;;;;5090639;28;20025;-77
2021/10/24 09:55:48;;;;;;;7.00;4.65;;;9.30;87.70;;;;;;5074866;28;20027;-78
2021/10/24 09:58:15;;;;;;;8.00;5.50;;;9.40;87.80;;;;;;5074756;28;20469;-78
2021/10/24 10:00:43;;;;;;;7.40;5.00;;;9.40;87.60;;;;;;5075023;28;20099;-79
2021/10/24 10:03:08;;;;;;;8.52;5.80;;;9.40;87.30;;;;;;5090759;28;20023;-80
2021/10/24 10:05:37;;;;;;;8.02;4.60;;;9.50;87.10;;;;;;5074862;28;20024;-79
2021/10/24 10:08:04;;;;;;;6.13;4.70;;;9.60;87.20;;;;;;5079888;28;20032;-79
2021/10/24 10:10:30;;;;;;;5.60;4.15;;;9.70;87.20;;;;;;5078287;28;20430;-79
2021/10/24 10:13:01;;;;;;;5.57;3.95;;;9.60;87.20;;;;;;5090485;28;20028;-78
2021/10/24 10:15:39;;;;;;;11.38;5.15;;;9.70;87.60;;;;;;5090146;28;20024;-79
2021/10/24 10:18:05;;;;;;;6.97;4.35;;;9.70;87.50;;;;;;5090387;28;20581;-78
2021/10/24 10:20:35;;;;;;;4.50;3.67;;;9.80;87.80;;;;;;5090180;28;20025;-78
2021/10/24 10:23:09;;;;;;;5.20;3.97;;;9.90;87.70;;;;;;5074313;28;20055;-79
2021/10/24 10:25:36;;;;;;;4.47;3.60;;;9.90;87.30;;;;;;5089923;28;20028;-79
2021/10/24 10:28:03;;;;;;;8.57;4.97;;;10.00;87.30;;;;;;5074130;28;20099;-78
2021/10/24 10:30:43;;;;;;;7.80;5.00;;;10.00;87.20;;;;;;5089666;28;20020;-78
2021/10/24 10:33:55;;;;;;;6.18;4.22;;;10.10;86.90;;;;;;5089419;28;20020;-79
2021/10/24 10:36:21;;;;;;;9.13;4.13;;;10.10;86.90;;;;;;5054349;28;20032;-78
2021/10/24 10:38:47;;;;;;;8.00;4.97;;;10.20;86.80;;;;;;5089456;28;20023;-78
2021/10/24 10:41:14;;;;;;;8.88;5.38;;;10.30;86.50;;;;;;5085007;28;20424;-78
2021/10/24 10:43:41;;;;;;;7.85;4.90;;;10.30;86.20;;;;;;5089346;28;20032;-78
2021/10/24 10:46:08;;;;;;;5.97;4.38;;;10.40;86.10;;;;;;5089121;28;20025;-77
2021/10/24 10:48:41;;;;;;;5.78;4.03;;;10.50;86.00;;;;;;5089414;28;20055;-79
2021/10/24 10:51:18;;;;;;;6.82;3.75;;;10.50;85.90;;;;;;5073585;28;20392;-78
2021/10/24 10:53:47;;;;;;;7.22;4.15;;;10.60;85.70;;;;;;5073695;28;20044;-78
2021/10/24 10:56:12;;;;;;;6.40;4.15;;;10.60;85.60;;;;;;5106138;28;20093;-79
2021/10/24 10:58:46;;;;;;;6.78;3.90;;;10.70;85.70;;;;;;5105999;28;20020;-79
2021/10/24 11:01:20;;;;;;;6.53;4.75;;;10.70;85.50;;;;;;5073395;28;20052;-78
2021/10/24 11:03:46;;;;;;;7.65;4.85;;;10.80;85.20;;;;;;5073427;28;20037;-78
2021/10/24 11:06:27;;;;;;;6.15;4.13;;;10.80;84.90;;;;;;5088895;28;20114;-78
2021/10/24 11:09:03;;;;;;;5.90;3.85;;;10.90;84.90;;;;;;5105838;28;20037;-78
2021/10/24 11:11:41;;;;;;;6.65;3.88;;;10.90;84.80;;;;;;5105618;28;20123;-78
2021/10/24 11:14:16;;;;;;;5.50;4.22;;;10.90;84.60;;;;;;5105768;28;20449;-79
2021/10/24 11:16:46;;;;;;;8.70;4.90;;;11.00;84.40;;;;;;5105664;28;20024;-79
2021/10/24 11:19:32;;;;;;;8.35;4.93;;;11.00;84.10;;;;;;5105586;28;20060;-79
2021/10/24 11:22:16;;;;;;;5.97;4.10;;;11.10;83.90;;;;;;5105753;28;20435;-79
2021/10/24 11:24:48;;;;;;;7.13;4.78;;;11.10;83.70;;;;;;5088603;28;20033;-78
2021/10/24 11:27:16;;;;;;;8.20;5.03;;;11.20;83.50;;;;;;5088594;28;20484;-79
2021/10/24 11:29:57;;;;;;;5.80;4.10;;;11.20;83.40;;;;;;5088599;28;20472;-78
2021/10/24 11:32:35;;;;;;;7.53;4.20;;;11.30;83.30;;;;;;5088421;28;20476;-78
2021/10/24 11:35:11;;;;;;;5.70;4.25;;;11.40;83.50;;;;;;5088400;28;20040;-79
2021/10/24 11:37:41;;;;;;;5.65;3.00;;;11.40;83.10;;;;;;5073053;28;20074;-79
2021/10/24 11:40:32;;;;;;;5.35;3.80;;;11.40;83.10;;;;;;5088363;28;20047;-77
2021/10/24 11:43:13;;;;;;;6.75;4.30;;;11.50;83.30;;;;;;5065707;28;20123;-78
2021/10/24 11:45:54;;;;;;;5.35;4.00;;;11.50;83.20;;;;;;5072956;28;20032;-79
2021/10/24 11:48:25;;;;;;;9.88;4.85;;;11.60;83.60;;;;;;5088317;28;20035;-79
2021/10/24 11:51:03;;;;;;;4.72;3.28;;;11.70;82.70;;;;;;5072803;28;20399;-79
2021/10/24 11:53:39;;;;;;;5.72;3.97;;;11.70;82.50;;;;;;5088087;28;20059;-79
2021/10/24 11:56:11;;;;;;;6.82;4.20;;;11.80;82.40;;;;;;5105286;28;20029;-79
2021/10/24 12:01:21;;;;;;;5.93;3.90;;;11.90;81.90;;;;;;5073152;28;20043;-79
2021/10/24 12:04:04;;;;;;;4.60;3.40;;;12.00;81.70;;;;;;5088220;28;20115;-78
2021/10/24 12:07:01;;;;;;;5.43;3.50;;;12.00;81.50;;;;;;5088226;28;20060;-78
2021/10/24 12:09:39;;;;;;;6.68;4.00;;;12.10;81.40;;;;;;5089852;28;20032;-78
2021/10/24 12:12:13;;;;;;;4.85;3.58;;;12.20;81.30;;;;;;5092059;28;20025;-78
2021/10/24 12:14:59;;;;;;;4.72;3.88;;;12.20;81.20;;;;;;5076618;28;20052;-77
2021/10/24 12:17:39;;;;;;;6.50;4.30;;;12.30;80.90;;;;;;5092187;28;20480;-81
2021/10/24 12:20:19;;;;;;;5.03;3.50;;;12.30;80.50;;;;;;5092140;28;20158;-79
2021/10/24 12:23:13;;;;;;;5.20;3.65;;;12.30;80.40;;;;;;5091991;28;20502;-78
2021/10/24 12:25:56;;;;;;;4.60;3.22;;;12.40;80.40;;;;;;5092012;28;20496;-78
2021/10/24 12:28:28;;;;;;;6.18;4.00;;;12.50;80.20;;;;;;5091911;28;20028;-78
2021/10/24 12:30:58;;;;;;;4.60;3.40;;;12.50;80.10;;;;;;5108873;28;20070;-79
2021/10/24 12:33:28;;;;;;;6.18;3.50;;;12.60;80.00;;;;;;5108719;28;20040;-78
2021/10/24 12:35:55;;;;;;;5.63;3.75;;;12.70;79.70;;;;;;5109017;28;20029;-78
2021/10/24 12:38:22;;;;;;;6.57;4.00;;;12.70;79.40;;;;;;5091598;28;20033;-78
2021/10/24 12:40:54;;;;;;;5.57;3.85;;;12.70;79.70;;;;;;5091467;28;20064;-78
2021/10/24 12:43:20;;;;;;;4.55;3.22;;;12.80;78.90;;;;;;5091741;28;20506;-76
2021/10/24 12:45:57;;;;;;;5.93;4.10;;;12.80;79.00;;;;;;5075949;28;20064;-78
2021/10/24 12:48:39;;;;;;;5.50;3.50;;;12.90;78.60;;;;;;5076253;28;20020;-78
2021/10/24 12:51:31;;;;;;;5.80;3.58;;;12.90;78.80;;;;;;5108502;28;20036;-79
2021/10/24 12:53:59;;;;;;;5.80;3.70;;;12.90;78.50;;;;;;5088484;28;20519;-78
2021/10/24 12:56:26;;;;;;;4.78;3.75;;;12.90;78.30;;;;;;5075580;28;20032;-79
2021/10/24 12:58:53;;;;;;;6.10;4.20;;;13.00;78.40;;;;;;5091407;28;20052;-79
2021/10/24 13:01:21;;;;;;;4.47;2.67;;;13.00;78.10;;;;;;5075693;28;20021;-78
2021/10/24 13:03:46;;;;;;;5.97;4.00;;;13.10;78.10;;;;;;5091419;28;20098;-78
2021/10/24 13:06:12;;;;;;;4.80;3.42;;;13.10;78.00;;;;;;5091291;28;20492;-77
2021/10/24 13:08:38;;;;;;;5.57;3.80;;;13.20;77.80;;;;;;5075696;28;20040;-78
2021/10/24 13:11:04;;;;;;;5.72;3.25;;;13.20;78.30;;;;;;5074324;28;20146;-78
2021/10/24 13:13:29;;;;;;;7.10;3.88;;;13.30;77.60;;;;;;5075735;28;20031;-77
2021/10/24 13:16:38;;;;;;;5.65;3.97;;;13.30;77.40;;;;;;5091182;28;20029;-77
2021/10/24 13:19:04;;;;;;;4.40;3.72;;;13.40;77.00;;;;;;5090849;28;20419;-78
2021/10/24 13:24:04;;;;;;;5.03;3.50;;;13.40;77.10;;;;;;5075486;28;20047;-78